HomeShort term forecast

Short term forecast

Graphical weather forecast for the next 48 hours for Montreal:
Short term forecast
This weather forecast is automatically refreshed every 3 hours.

Hourly Experimental Forecast for the next 48 hours

Overall summary: Partly cloudy later this afternoon.

 Date & Hour   Temp   Feel   Baro   Hum   Speed & Bearing   Wind Gust   Precip.%   Precip.   Visibility   Cloud cover   Conditions 
 22/09/2018 - 15:00  14.7°C  14.7°C  1023.2 hPa  45%  14.1 km/h   25.8 km/h  2%  0.01 mm/h  16.1km  25%  Partly Cloudy 
 22/09/2018 - 16:00  15.7°C  15.7°C  1023.0 hPa  44%  14.5 km/h   23.3 km/h  0%  --  16.1km  14%  Clear 
 22/09/2018 - 17:00  16.1°C  16.1°C  1023.0 hPa  43%  14.3 km/h   20.8 km/h  0%  --  16.1km  4%  Clear 
 22/09/2018 - 18:00  15.3°C  15.3°C  1023.2 hPa  47%  12.8 km/h   20.3 km/h  1%  0.05 mm/h  16.1km  0%  Clear 
 22/09/2018 - 19:00  13.4°C  13.4°C  1023.5 hPa  55%  10.9 km/h   21.2 km/h  1%  0.01 mm/h  16.1km  0%  Clear 
 22/09/2018 - 20:00  12.2°C  12.2°C  1023.6 hPa  60%  9.9 km/h   20.8 km/h  2%  0.03 mm/h  16.1km  0%  Clear 
 22/09/2018 - 21:00  11.4°C  11.4°C  1023.8 hPa  64%  8.9 km/h   18.4 km/h  2%  0.01 mm/h  16.1km  0%  Clear 
 22/09/2018 - 22:00  11.0°C  11.0°C  1023.9 hPa  66%  8.4 km/h   15.7 km/h  0%  --  16.1km  0%  Clear 
 22/09/2018 - 23:00  10.6°C  10.6°C  1023.9 hPa  67%  8.3 km/h   12.3 km/h  0%  --  16.1km  0%  Clear 
 23/09/2018 - 00:00  10.2°C  10.2°C  1023.8 hPa  68%  8.2 km/h   11.5 km/h  2%  0.03 mm/h  16.1km  0%  Clear 
 23/09/2018 - 01:00  10.0°C  10.0°C  1023.8 hPa  68%  8.8 km/h   13.5 km/h  0%  --  16.1km  0%  Clear 
 23/09/2018 - 02:00  9.7°C  8.4°C  1023.8 hPa  69%  9.3 km/h   16.6 km/h  2%  0.05 mm/h  16.1km  0%  Clear 
 23/09/2018 - 03:00  9.3°C  7.9°C  1023.7 hPa  70%  9.5 km/h   17.9 km/h  2%  0.04 mm/h  16.1km  3%  Clear 
 23/09/2018 - 04:00  9.0°C  7.5°C  1023.5 hPa  72%  9.8 km/h   19.5 km/h  0%  --  16.1km  6%  Clear 
 23/09/2018 - 05:00  7.7°C  5.7°C  1023.3 hPa  75%  10.9 km/h   22.5 km/h  0%  --  16.1km  12%  Clear 
 23/09/2018 - 06:00  7.6°C  5.5°C  1023.5 hPa  75%  11.6 km/h   24.6 km/h  0%  --  16.1km  11%  Clear 
 23/09/2018 - 07:00  7.7°C  5.5°C  1023.9 hPa  75%  12.4 km/h   26.3 km/h  0%  --  16.1km  9%  Clear 
 23/09/2018 - 08:00  8.2°C  6.0°C  1024.2 hPa  74%  13.0 km/h   26.6 km/h  0%  --  16.1km  7%  Clear 
 23/09/2018 - 09:00  9.5°C  7.6°C  1024.3 hPa  69%  13.1 km/h   24.4 km/h  0%  --  16.1km  9%  Clear 
 23/09/2018 - 10:00  11.6°C  11.6°C  1024.3 hPa  62%  12.9 km/h   20.7 km/h  0%  --  16.1km  13%  Clear 
 23/09/2018 - 11:00  13.7°C  13.7°C  1024.3 hPa  56%  12.7 km/h   18.1 km/h  0%  --  16.1km  16%  Clear 
 23/09/2018 - 12:00  15.2°C  15.2°C  1024.2 hPa  53%  12.6 km/h   17.7 km/h  0%  --  16.1km  17%  Clear 
 23/09/2018 - 13:00  16.4°C  16.4°C  1024.1 hPa  51%  12.5 km/h   18.4 km/h  0%  --  16.1km  17%  Clear 
 23/09/2018 - 14:00  17.2°C  17.2°C  1024.1 hPa  50%  12.6 km/h   18.8 km/h  2%  0.01 mm/h  16.1km  19%  Clear 
 23/09/2018 - 15:00  17.5°C  17.5°C  1024.1 hPa  51%  13.2 km/h   18.3 km/h  3%  0.01 mm/h  16.1km  33%  Partly Cloudy 
 23/09/2018 - 16:00  17.2°C  17.2°C  1024.2 hPa  54%  14.1 km/h   17.5 km/h  4%  0.03 mm/h  16.1km  51%  Partly Cloudy 
 23/09/2018 - 17:00  16.6°C  16.6°C  1024.6 hPa  56%  14.8 km/h   17.7 km/h  4%  0.05 mm/h  16.1km  65%  Mostly Cloudy 
 23/09/2018 - 18:00  15.4°C  15.4°C  1025.5 hPa  59%  15.0 km/h   19.3 km/h  4%  0.05 mm/h  16.1km  70%  Mostly Cloudy 
 23/09/2018 - 19:00  14.2°C  14.2°C  1026.7 hPa  61%  14.9 km/h   21.7 km/h  4%  0.05 mm/h  16.1km  74%  Mostly Cloudy 
 23/09/2018 - 20:00  13.1°C  13.1°C  1027.8 hPa  62%  15.3 km/h   24.0 km/h  4%  0.04 mm/h  16.1km  78%  Mostly Cloudy 
 23/09/2018 - 21:00  12.3°C  12.3°C  1028.7 hPa  59%  16.2 km/h   26.0 km/h  4%  0.04 mm/h  16.1km  83%  Mostly Cloudy 
 23/09/2018 - 22:00  11.8°C  11.8°C  1029.5 hPa  55%  17.5 km/h   27.9 km/h  3%  0.04 mm/h  16.1km  89%  Mostly Cloudy 
 23/09/2018 - 23:00  11.2°C  11.2°C  1030.3 hPa  51%  18.4 km/h   29.7 km/h  3%  0.03 mm/h  16.1km  92%  Mostly Cloudy 
 24/09/2018 - 00:00  10.6°C  10.6°C  1031.1 hPa  46%  18.8 km/h   31.4 km/h  2%  0.01 mm/h  16.1km  94%  Overcast 
 24/09/2018 - 01:00  10.0°C  7.5°C  1031.8 hPa  41%  18.9 km/h   33.1 km/h  0%  --  16.1km  94%  Overcast 
 24/09/2018 - 02:00  9.4°C  6.7°C  1032.4 hPa  39%  18.9 km/h   34.7 km/h  0%  --  16.1km  91%  Mostly Cloudy 
 24/09/2018 - 03:00  8.6°C  5.8°C  1032.8 hPa  39%  19.1 km/h   36.0 km/h  0%  --  16.1km  85%  Mostly Cloudy 
 24/09/2018 - 04:00  7.8°C  4.7°C  1033.3 hPa  43%  19.1 km/h   37.3 km/h  0%  --  16.1km  75%  Mostly Cloudy 
 24/09/2018 - 05:00  6.9°C  3.5°C  1033.7 hPa  46%  19.3 km/h   38.2 km/h  0%  --  16.1km  67%  Mostly Cloudy 
 24/09/2018 - 06:00  6.1°C  2.5°C  1034.5 hPa  49%  19.4 km/h   38.6 km/h  0%  --  16.1km  60%  Mostly Cloudy 
 24/09/2018 - 07:00  5.3°C  1.5°C  1035.4 hPa  52%  19.5 km/h   38.7 km/h  0%  --  16.1km  54%  Partly Cloudy 
 24/09/2018 - 08:00  5.3°C  1.5°C  1036.0 hPa  52%  19.6 km/h   37.8 km/h  0%  --  16.1km  45%  Partly Cloudy 
 24/09/2018 - 09:00  6.4°C  2.9°C  1036.1 hPa  49%  19.7 km/h   35.4 km/h  0%  --  16.1km  30%  Partly Cloudy 
 24/09/2018 - 10:00  8.2°C  5.2°C  1035.9 hPa  44%  19.7 km/h   32.2 km/h  0%  --  16.1km  13%  Clear 
 24/09/2018 - 11:00  9.9°C  7.3°C  1035.6 hPa  40%  19.6 km/h   29.2 km/h  0%  --  16.1km  0%  Clear 
 24/09/2018 - 12:00  11.5°C  11.5°C  1035.0 hPa  38%  19.3 km/h   26.8 km/h  2%  0.01 mm/h  16.1km  0%  Clear 
 24/09/2018 - 13:00  12.9°C  12.9°C  1034.4 hPa  37%  18.8 km/h   24.7 km/h  2%  0.01 mm/h  16.1km  0%  Clear 
 24/09/2018 - 14:00  14.3°C  14.3°C  1033.7 hPa  36%  18.3 km/h   23.3 km/h  2%  0.01 mm/h  16.1km  0%  Clear 
Test

 

Past weather and reports

Past weatherFind in this section the past weather conditions, weather archive, graphics, reports and statistics.

Current conditions

Current weather condition for MontrealAll you need to know about the current weather conditions for Montreal. Weather data is updated every 10 minutes.

Weather forecast

Current Montreal weatherSince 2004, celinium.com website has provided accurate weather forecast for Montreal's island.